sensor_id;sensor_type;location;lat;lon;timestamp;P1;P2;P0
42510;PMS7003;28141;51.120;17.114;2022-08-25T00:02:31;17;9;6
42510;PMS7003;28141;51.120;17.114;2022-08-25T00:05:34;16;10;7
42510;PMS7003;28141;51.120;17.114;2022-08-25T00:08:39;18;11;7
42510;PMS7003;28141;51.120;17.114;2022-08-25T00:11:43;16;9;6
42510;PMS7003;28141;51.120;17.114;2022-08-25T00:14:49;19;12;7
42510;PMS7003;28141;51.120;17.114;2022-08-25T00:17:52;16;9;7
42510;PMS7003;28141;51.120;17.114;2022-08-25T00:21:25;15;9;6
42510;PMS7003;28141;51.120;17.114;2022-08-25T00:24:29;20;10;7
42510;PMS7003;28141;51.120;17.114;2022-08-25T00:27:33;15;7;6
42510;PMS7003;28141;51.120;17.114;2022-08-25T00:30:37;18;10;6
42510;PMS7003;28141;51.120;17.114;2022-08-25T00:33:42;17;10;6
42510;PMS7003;28141;51.120;17.114;2022-08-25T00:36:47;17;10;6
42510;PMS7003;28141;51.120;17.114;2022-08-25T00:39:53;17;9;7
42510;PMS7003;28141;51.120;17.114;2022-08-25T00:42:59;18;10;7
42510;PMS7003;28141;51.120;17.114;2022-08-25T00:46:04;20;11;7
42510;PMS7003;28141;51.120;17.114;2022-08-25T00:52:49;16;9;6
42510;PMS7003;28141;51.120;17.114;2022-08-25T00:55:56;17;9;6
42510;PMS7003;28141;51.120;17.114;2022-08-25T00:59:00;16;8;5
42510;PMS7003;28141;51.120;17.114;2022-08-25T01:02:07;16;9;6
42510;PMS7003;28141;51.120;17.114;2022-08-25T01:05:11;15;8;6
42510;PMS7003;28141;51.120;17.114;2022-08-25T01:08:15;16;8;6
42510;PMS7003;28141;51.120;17.114;2022-08-25T01:11:23;16;9;7
42510;PMS7003;28141;51.120;17.114;2022-08-25T01:14:29;16;8;6
42510;PMS7003;28141;51.120;17.114;2022-08-25T01:18:03;16;9;6
42510;PMS7003;28141;51.120;17.114;2022-08-25T01:21:06;15;7;5
42510;PMS7003;28141;51.120;17.114;2022-08-25T01:24:11;15;9;6
42510;PMS7003;28141;51.120;17.114;2022-08-25T01:27:21;15;8;6
42510;PMS7003;28141;51.120;17.114;2022-08-25T01:30:25;15;9;6
42510;PMS7003;28141;51.120;17.114;2022-08-25T01:33:28;15;8;6
42510;PMS7003;28141;51.120;17.114;2022-08-25T01:36:32;17;9;7
42510;PMS7003;28141;51.120;17.114;2022-08-25T01:39:37;15;8;7
42510;PMS7003;28141;51.120;17.114;2022-08-25T01:42:46;16;9;6
42510;PMS7003;28141;51.120;17.114;2022-08-25T01:46:21;17;9;6
42510;PMS7003;28141;51.120;17.114;2022-08-25T01:49:25;14;7;6
42510;PMS7003;28141;51.120;17.114;2022-08-25T01:52:32;16;9;6
42510;PMS7003;28141;51.120;17.114;2022-08-25T01:55:41;17;10;7
42510;PMS7003;28141;51.120;17.114;2022-08-25T01:58:53;17;8;6
42510;PMS7003;28141;51.120;17.114;2022-08-25T02:01:58;17;10;6
42510;PMS7003;28141;51.120;17.114;2022-08-25T02:05:01;16;9;6
42510;PMS7003;28141;51.120;17.114;2022-08-25T02:08:05;17;9;6
42510;PMS7003;28141;51.120;17.114;2022-08-25T02:11:36;17;10;7
42510;PMS7003;28141;51.120;17.114;2022-08-25T02:14:43;14;7;6
42510;PMS7003;28141;51.120;17.114;2022-08-25T02:17:47;17;9;6
42510;PMS7003;28141;51.120;17.114;2022-08-25T02:20:50;16;10;7
42510;PMS7003;28141;51.120;17.114;2022-08-25T02:23:54;16;9;7
42510;PMS7003;28141;51.120;17.114;2022-08-25T02:26:58;18;11;8
42510;PMS7003;28141;51.120;17.114;2022-08-25T02:30:04;16;10;7
42510;PMS7003;28141;51.120;17.114;2022-08-25T02:33:08;15;9;7
42510;PMS7003;28141;51.120;17.114;2022-08-25T02:36:12;15;9;6
42510;PMS7003;28141;51.120;17.114;2022-08-25T02:39:16;17;10;6
42510;PMS7003;28141;51.120;17.114;2022-08-25T02:42:49;16;8;6
42510;PMS7003;28141;51.120;17.114;2022-08-25T02:45:53;17;10;6
42510;PMS7003;28141;51.120;17.114;2022-08-25T02:49:01;17;10;8
42510;PMS7003;28141;51.120;17.114;2022-08-25T02:52:05;16;9;6
42510;PMS7003;28141;51.120;17.114;2022-08-25T02:55:09;15;8;5
42510;PMS7003;28141;51.120;17.114;2022-08-25T02:58:15;17;10;6
42510;PMS7003;28141;51.120;17.114;2022-08-25T03:01:19;17;10;7
42510;PMS7003;28141;51.120;17.114;2022-08-25T03:04:23;18;10;7
42510;PMS7003;28141;51.120;17.114;2022-08-25T03:07:26;16;10;7
42510;PMS7003;28141;51.120;17.114;2022-08-25T03:10:56;20;13;8
42510;PMS7003;28141;51.120;17.114;2022-08-25T03:13:59;19;11;8
42510;PMS7003;28141;51.120;17.114;2022-08-25T03:17:03;20;12;8
42510;PMS7003;28141;51.120;17.114;2022-08-25T03:20:07;20;12;8
42510;PMS7003;28141;51.120;17.114;2022-08-25T03:23:12;22;13;9
42510;PMS7003;28141;51.120;17.114;2022-08-25T03:26:15;21;13;9
42510;PMS7003;28141;51.120;17.114;2022-08-25T03:29:31;22;13;8
42510;PMS7003;28141;51.120;17.114;2022-08-25T03:32:36;20;12;9
42510;PMS7003;28141;51.120;17.114;2022-08-25T03:36:08;18;12;8
42510;PMS7003;28141;51.120;17.114;2022-08-25T03:39:16;19;11;8
42510;PMS7003;28141;51.120;17.114;2022-08-25T03:42:21;19;12;9
42510;PMS7003;28141;51.120;17.114;2022-08-25T03:45:26;18;11;8
42510;PMS7003;28141;51.120;17.114;2022-08-25T03:48:30;20;11;9
42510;PMS7003;28141;51.120;17.114;2022-08-25T03:51:36;20;12;9
42510;PMS7003;28141;51.120;17.114;2022-08-25T03:54:43;20;13;8
42510;PMS7003;28141;51.120;17.114;2022-08-25T03:57:46;19;12;9
42510;PMS7003;28141;51.120;17.114;2022-08-25T04:01:27;20;12;8
42510;PMS7003;28141;51.120;17.114;2022-08-25T04:04:41;19;11;8
42510;PMS7003;28141;51.120;17.114;2022-08-25T04:07:55;21;12;9
42510;PMS7003;28141;51.120;17.114;2022-08-25T04:10:58;21;13;9
42510;PMS7003;28141;51.120;17.114;2022-08-25T04:14:06;17;10;8
42510;PMS7003;28141;51.120;17.114;2022-08-25T04:17:10;16;10;8
42510;PMS7003;28141;51.120;17.114;2022-08-25T04:20:13;18;10;8
42510;PMS7003;28141;51.120;17.114;2022-08-25T04:23:43;20;12;8
42510;PMS7003;28141;51.120;17.114;2022-08-25T04:26:50;18;12;10
42510;PMS7003;28141;51.120;17.114;2022-08-25T04:29:55;19;12;9
42510;PMS7003;28141;51.120;17.114;2022-08-25T04:32:58;17;10;8
42510;PMS7003;28141;51.120;17.114;2022-08-25T04:36:02;19;12;8
42510;PMS7003;28141;51.120;17.114;2022-08-25T04:39:08;19;12;9
42510;PMS7003;28141;51.120;17.114;2022-08-25T04:42:11;18;11;9
42510;PMS7003;28141;51.120;17.114;2022-08-25T04:45:15;19;13;10
42510;PMS7003;28141;51.120;17.114;2022-08-25T04:48:19;21;13;8
42510;PMS7003;28141;51.120;17.114;2022-08-25T04:51:24;22;15;9
42510;PMS7003;28141;51.120;17.114;2022-08-25T04:54:57;21;14;10
42510;PMS7003;28141;51.120;17.114;2022-08-25T04:58:01;23;16;10
42510;PMS7003;28141;51.120;17.114;2022-08-25T05:01:06;19;11;8
42510;PMS7003;28141;51.120;17.114;2022-08-25T05:04:13;20;13;9
42510;PMS7003;28141;51.120;17.114;2022-08-25T05:07:17;20;13;9
42510;PMS7003;28141;51.120;17.114;2022-08-25T05:10:21;19;12;9
42510;PMS7003;28141;51.120;17.114;2022-08-25T05:13:25;19;12;9
42510;PMS7003;28141;51.120;17.114;2022-08-25T05:16:29;17;11;8
42510;PMS7003;28141;51.120;17.114;2022-08-25T05:19:33;21;14;10
42510;PMS7003;28141;51.120;17.114;2022-08-25T05:22:37;20;12;9
42510;PMS7003;28141;51.120;17.114;2022-08-25T05:26:11;19;12;8
42510;PMS7003;28141;51.120;17.114;2022-08-25T05:29:16;20;14;10
42510;PMS7003;28141;51.120;17.114;2022-08-25T05:32:20;21;13;10
42510;PMS7003;28141;51.120;17.114;2022-08-25T05:35:24;21;13;9
42510;PMS7003;28141;51.120;17.114;2022-08-25T05:38:28;19;12;9
42510;PMS7003;28141;51.120;17.114;2022-08-25T05:41:32;21;14;10
42510;PMS7003;28141;51.120;17.114;2022-08-25T05:44:35;21;13;10
42510;PMS7003;28141;51.120;17.114;2022-08-25T05:47:39;21;15;11
42510;PMS7003;28141;51.120;17.114;2022-08-25T05:50:49;24;15;11
42510;PMS7003;28141;51.120;17.114;2022-08-25T05:54:23;22;13;10
42510;PMS7003;28141;51.120;17.114;2022-08-25T05:57:27;22;14;11
42510;PMS7003;28141;51.120;17.114;2022-08-25T06:00:30;23;15;12
42510;PMS7003;28141;51.120;17.114;2022-08-25T06:03:34;21;13;10
42510;PMS7003;28141;51.120;17.114;2022-08-25T06:06:37;22;14;11
42510;PMS7003;28141;51.120;17.114;2022-08-25T06:09:42;24;15;10
42510;PMS7003;28141;51.120;17.114;2022-08-25T06:12:50;25;17;12
42510;PMS7003;28141;51.120;17.114;2022-08-25T06:15:57;21;14;10
42510;PMS7003;28141;51.120;17.114;2022-08-25T06:19:02;22;13;9
42510;PMS7003;28141;51.120;17.114;2022-08-25T06:22:35;29;22;15
42510;PMS7003;28141;51.120;17.114;2022-08-25T06:25:39;21;14;10
42510;PMS7003;28141;51.120;17.114;2022-08-25T06:28:43;31;22;16
42510;PMS7003;28141;51.120;17.114;2022-08-25T06:31:46;29;20;14
42510;PMS7003;28141;51.120;17.114;2022-08-25T06:34:51;26;18;13
42510;PMS7003;28141;51.120;17.114;2022-08-25T06:37:54;24;16;12
42510;PMS7003;28141;51.120;17.114;2022-08-25T06:41:00;33;25;18
42510;PMS7003;28141;51.120;17.114;2022-08-25T06:44:05;28;18;13
42510;PMS7003;28141;51.120;17.114;2022-08-25T06:47:09;33;24;18
42510;PMS7003;28141;51.120;17.114;2022-08-25T06:50:12;39;28;18
42510;PMS7003;28141;51.120;17.114;2022-08-25T06:53:45;38;28;19
42510;PMS7003;28141;51.120;17.114;2022-08-25T06:56:54;25;18;13
42510;PMS7003;28141;51.120;17.114;2022-08-25T06:59:58;26;18;14
42510;PMS7003;28141;51.120;17.114;2022-08-25T07:03:01;36;27;18
42510;PMS7003;28141;51.120;17.114;2022-08-25T07:06:06;41;29;20
42510;PMS7003;28141;51.120;17.114;2022-08-25T07:09:11;24;18;14
42510;PMS7003;28141;51.120;17.114;2022-08-25T07:12:15;25;18;14
42510;PMS7003;28141;51.120;17.114;2022-08-25T07:15:19;31;23;15
42510;PMS7003;28141;51.120;17.114;2022-08-25T07:18:23;34;26;17
42510;PMS7003;28141;51.120;17.114;2022-08-25T07:21:54;38;29;20
42510;PMS7003;28141;51.120;17.114;2022-08-25T07:24:58;30;20;15
42510;PMS7003;28141;51.120;17.114;2022-08-25T07:28:02;27;20;14
42510;PMS7003;28141;51.120;17.114;2022-08-25T07:31:06;40;26;18
42510;PMS7003;28141;51.120;17.114;2022-08-25T07:34:10;31;22;16
42510;PMS7003;28141;51.120;17.114;2022-08-25T07:37:25;34;25;16
42510;PMS7003;28141;51.120;17.114;2022-08-25T07:40:30;27;18;13
42510;PMS7003;28141;51.120;17.114;2022-08-25T07:43:35;36;27;19
42510;PMS7003;28141;51.120;17.114;2022-08-25T07:47:05;35;27;19
42510;PMS7003;28141;51.120;17.114;2022-08-25T07:50:10;35;28;19
42510;PMS7003;28141;51.120;17.114;2022-08-25T07:53:18;35;26;17
42510;PMS7003;28141;51.120;17.114;2022-08-25T07:56:21;34;25;18
42510;PMS7003;28141;51.120;17.114;2022-08-25T07:59:25;29;21;14
42510;PMS7003;28141;51.120;17.114;2022-08-25T08:02:28;29;21;15
42510;PMS7003;28141;51.120;17.114;2022-08-25T08:05:32;25;18;13
42510;PMS7003;28141;51.120;17.114;2022-08-25T08:08:39;27;19;14
42510;PMS7003;28141;51.120;17.114;2022-08-25T08:11:47;24;17;11
42510;PMS7003;28141;51.120;17.114;2022-08-25T08:15:17;31;24;16
42510;PMS7003;28141;51.120;17.114;2022-08-25T08:18:22;27;19;14
42510;PMS7003;28141;51.120;17.114;2022-08-25T08:21:27;32;24;18
42510;PMS7003;28141;51.120;17.114;2022-08-25T08:24:33;26;19;14
42510;PMS7003;28141;51.120;17.114;2022-08-25T08:27:40;25;18;13
42510;PMS7003;28141;51.120;17.114;2022-08-25T08:30:46;27;19;14
42510;PMS7003;28141;51.120;17.114;2022-08-25T08:33:53;28;18;13
42510;PMS7003;28141;51.120;17.114;2022-08-25T08:36:58;25;18;13
42510;PMS7003;28141;51.120;17.114;2022-08-25T08:40:03;28;19;14
42510;PMS7003;28141;51.120;17.114;2022-08-25T08:43:09;26;19;14
42510;PMS7003;28141;51.120;17.114;2022-08-25T08:46:20;26;18;12
42510;PMS7003;28141;51.120;17.114;2022-08-25T08:49:30;23;16;11
42510;PMS7003;28141;51.120;17.114;2022-08-25T08:56:29;27;17;11
42510;PMS7003;28141;51.120;17.114;2022-08-25T08:59:43;23;15;11
42510;PMS7003;28141;51.120;17.114;2022-08-25T09:02:56;22;15;10
42510;PMS7003;28141;51.120;17.114;2022-08-25T09:06:31;24;15;10
42510;PMS7003;28141;51.120;17.114;2022-08-25T09:09:43;22;14;10
42510;PMS7003;28141;51.120;17.114;2022-08-25T09:16:05;23;15;10
42510;PMS7003;28141;51.120;17.114;2022-08-25T09:23:33;21;13;8
42510;PMS7003;28141;51.120;17.114;2022-08-25T09:29:49;19;12;8
42510;PMS7003;28141;51.120;17.114;2022-08-25T09:33:27;19;11;8
42510;PMS7003;28141;51.120;17.114;2022-08-25T09:36:32;17;9;7
42510;PMS7003;28141;51.120;17.114;2022-08-25T09:39:37;16;9;7
42510;PMS7003;28141;51.120;17.114;2022-08-25T09:42:44;19;11;7
42510;PMS7003;28141;51.120;17.114;2022-08-25T09:49:11;16;8;5
42510;PMS7003;28141;51.120;17.114;2022-08-25T09:52:44;16;8;6
42510;PMS7003;28141;51.120;17.114;2022-08-25T09:55:51;16;9;6
42510;PMS7003;28141;51.120;17.114;2022-08-25T10:02:22;17;9;7
42510;PMS7003;28141;51.120;17.114;2022-08-25T10:05:30;16;8;5
42510;PMS7003;28141;51.120;17.114;2022-08-25T10:09:05;15;9;7
42510;PMS7003;28141;51.120;17.114;2022-08-25T10:18:36;16;8;6
42510;PMS7003;28141;51.120;17.114;2022-08-25T10:21:41;15;7;6
42510;PMS7003;28141;51.120;17.114;2022-08-25T10:24:45;14;7;4
42510;PMS7003;28141;51.120;17.114;2022-08-25T10:31:36;15;8;6
42510;PMS7003;28141;51.120;17.114;2022-08-25T10:34:54;16;8;5
42510;PMS7003;28141;51.120;17.114;2022-08-25T10:41:21;18;8;6
42510;PMS7003;28141;51.120;17.114;2022-08-25T10:45:05;17;8;6
42510;PMS7003;28141;51.120;17.114;2022-08-25T10:55:41;17;10;7
42510;PMS7003;28141;51.120;17.114;2022-08-25T11:02:07;17;9;7
42510;PMS7003;28141;51.120;17.114;2022-08-25T11:08:59;15;8;6
42510;PMS7003;28141;51.120;17.114;2022-08-25T11:15:27;18;10;8
42510;PMS7003;28141;51.120;17.114;2022-08-25T11:18:36;19;11;7
42510;PMS7003;28141;51.120;17.114;2022-08-25T11:31:59;16;9;7
42510;PMS7003;28141;51.120;17.114;2022-08-25T11:35:07;18;11;7
42510;PMS7003;28141;51.120;17.114;2022-08-25T11:38:17;17;10;7
42510;PMS7003;28141;51.120;17.114;2022-08-25T11:48:32;19;11;8
42510;PMS7003;28141;51.120;17.114;2022-08-25T11:51:40;18;10;7
42510;PMS7003;28141;51.120;17.114;2022-08-25T11:54:48;21;11;7
42510;PMS7003;28141;51.120;17.114;2022-08-25T11:57:52;19;11;7
42510;PMS7003;28141;51.120;17.114;2022-08-25T12:04:46;17;10;8
42510;PMS7003;28141;51.120;17.114;2022-08-25T12:07:57;19;11;7
42510;PMS7003;28141;51.120;17.114;2022-08-25T12:21:29;15;8;6
42510;PMS7003;28141;51.120;17.114;2022-08-25T12:34:58;17;10;8
42510;PMS7003;28141;51.120;17.114;2022-08-25T12:41:59;17;10;7
42510;PMS7003;28141;51.120;17.114;2022-08-25T12:54:52;17;10;6
42510;PMS7003;28141;51.120;17.114;2022-08-25T12:58:00;16;9;7
42510;PMS7003;28141;51.120;17.114;2022-08-25T13:01:34;16;9;6
42510;PMS7003;28141;51.120;17.114;2022-08-25T13:11:16;15;8;5
42510;PMS7003;28141;51.120;17.114;2022-08-25T13:14:53;17;9;6
42510;PMS7003;28141;51.120;17.114;2022-08-25T13:21:18;17;9;6
42510;PMS7003;28141;51.120;17.114;2022-08-25T13:24:26;17;8;5
42510;PMS7003;28141;51.120;17.114;2022-08-25T13:27:34;17;9;6
42510;PMS7003;28141;51.120;17.114;2022-08-25T13:31:06;17;8;6
42510;PMS7003;28141;51.120;17.114;2022-08-25T13:34:18;18;9;6
42510;PMS7003;28141;51.120;17.114;2022-08-25T13:37:24;15;7;6
42510;PMS7003;28141;51.120;17.114;2022-08-25T13:40:30;15;8;5
42510;PMS7003;28141;51.120;17.114;2022-08-25T13:43:38;16;7;6
42510;PMS7003;28141;51.120;17.114;2022-08-25T13:46:42;15;8;7
42510;PMS7003;28141;51.120;17.114;2022-08-25T13:49:48;15;8;6
42510;PMS7003;28141;51.120;17.114;2022-08-25T13:56:37;15;8;7
42510;PMS7003;28141;51.120;17.114;2022-08-25T13:59:46;17;9;6
42510;PMS7003;28141;51.120;17.114;2022-08-25T14:02:55;17;9;6
42510;PMS7003;28141;51.120;17.114;2022-08-25T14:06:04;18;10;6
42510;PMS7003;28141;51.120;17.114;2022-08-25T14:09:15;17;9;6
42510;PMS7003;28141;51.120;17.114;2022-08-25T14:19:17;15;7;6
42510;PMS7003;28141;51.120;17.114;2022-08-25T14:22:25;16;8;6
42510;PMS7003;28141;51.120;17.114;2022-08-25T14:25:29;15;8;6
42510;PMS7003;28141;51.120;17.114;2022-08-25T14:28:33;15;8;6
42510;PMS7003;28141;51.120;17.114;2022-08-25T14:31:38;15;8;6
42510;PMS7003;28141;51.120;17.114;2022-08-25T14:35:11;16;9;6
42510;PMS7003;28141;51.120;17.114;2022-08-25T14:38:14;14;7;5
42510;PMS7003;28141;51.120;17.114;2022-08-25T14:41:19;16;9;6
42510;PMS7003;28141;51.120;17.114;2022-08-25T14:44:25;16;8;5
42510;PMS7003;28141;51.120;17.114;2022-08-25T14:47:29;16;8;5
42510;PMS7003;28141;51.120;17.114;2022-08-25T14:50:33;15;8;6
42510;PMS7003;28141;51.120;17.114;2022-08-25T14:53:37;16;9;6
42510;PMS7003;28141;51.120;17.114;2022-08-25T14:56:42;17;10;7
42510;PMS7003;28141;51.120;17.114;2022-08-25T14:59:45;16;8;6
42510;PMS7003;28141;51.120;17.114;2022-08-25T15:02:49;17;10;6
42510;PMS7003;28141;51.120;17.114;2022-08-25T15:05:54;16;9;6
42510;PMS7003;28141;51.120;17.114;2022-08-25T15:08:57;14;7;5
42510;PMS7003;28141;51.120;17.114;2022-08-25T15:12:41;17;9;6
42510;PMS7003;28141;51.120;17.114;2022-08-25T15:15:44;15;8;6
42510;PMS7003;28141;51.120;17.114;2022-08-25T15:18:49;14;8;5
42510;PMS7003;28141;51.120;17.114;2022-08-25T15:21:53;15;9;6
42510;PMS7003;28141;51.120;17.114;2022-08-25T15:24:56;17;9;6
42510;PMS7003;28141;51.120;17.114;2022-08-25T15:28:03;16;8;6
42510;PMS7003;28141;51.120;17.114;2022-08-25T15:31:10;17;8;6
42510;PMS7003;28141;51.120;17.114;2022-08-25T15:34:14;17;10;7
42510;PMS7003;28141;51.120;17.114;2022-08-25T15:37:17;17;10;8
42510;PMS7003;28141;51.120;17.114;2022-08-25T15:40:21;16;9;6
42510;PMS7003;28141;51.120;17.114;2022-08-25T15:43:24;16;8;5
42510;PMS7003;28141;51.120;17.114;2022-08-25T15:46:28;19;9;7
42510;PMS7003;28141;51.120;17.114;2022-08-25T15:49:32;16;8;7
42510;PMS7003;28141;51.120;17.114;2022-08-25T15:52:36;19;10;7
42510;PMS7003;28141;51.120;17.114;2022-08-25T15:56:06;15;9;7
42510;PMS7003;28141;51.120;17.114;2022-08-25T15:59:11;15;8;6
42510;PMS7003;28141;51.120;17.114;2022-08-25T16:02:15;16;10;6
42510;PMS7003;28141;51.120;17.114;2022-08-25T16:05:19;17;9;7
42510;PMS7003;28141;51.120;17.114;2022-08-25T16:08:23;17;10;7
42510;PMS7003;28141;51.120;17.114;2022-08-25T16:11:29;18;9;7
42510;PMS7003;28141;51.120;17.114;2022-08-25T16:14:36;18;10;8
42510;PMS7003;28141;51.120;17.114;2022-08-25T16:17:40;18;11;8
42510;PMS7003;28141;51.120;17.114;2022-08-25T16:21:15;18;11;6
42510;PMS7003;28141;51.120;17.114;2022-08-25T16:24:22;20;9;7
42510;PMS7003;28141;51.120;17.114;2022-08-25T16:27:26;17;10;7
42510;PMS7003;28141;51.120;17.114;2022-08-25T16:30:29;20;10;7
42510;PMS7003;28141;51.120;17.114;2022-08-25T16:33:33;20;10;7
42510;PMS7003;28141;51.120;17.114;2022-08-25T16:36:37;17;10;7
42510;PMS7003;28141;51.120;17.114;2022-08-25T16:39:41;16;10;6
42510;PMS7003;28141;51.120;17.114;2022-08-25T16:42:47;16;8;7
42510;PMS7003;28141;51.120;17.114;2022-08-25T16:46:19;18;11;7
42510;PMS7003;28141;51.120;17.114;2022-08-25T16:49:23;17;9;7
42510;PMS7003;28141;51.120;17.114;2022-08-25T16:52:27;16;9;6
42510;PMS7003;28141;51.120;17.114;2022-08-25T16:55:43;17;10;7
42510;PMS7003;28141;51.120;17.114;2022-08-25T16:58:46;16;8;6
42510;PMS7003;28141;51.120;17.114;2022-08-25T17:01:50;15;9;6
42510;PMS7003;28141;51.120;17.114;2022-08-25T17:04:54;16;10;6
42510;PMS7003;28141;51.120;17.114;2022-08-25T17:07:58;17;9;6
42510;PMS7003;28141;51.120;17.114;2022-08-25T17:11:44;15;8;7
42510;PMS7003;28141;51.120;17.114;2022-08-25T17:14:50;17;9;5
42510;PMS7003;28141;51.120;17.114;2022-08-25T17:17:54;17;9;6
42510;PMS7003;28141;51.120;17.114;2022-08-25T17:20:59;16;8;6
42510;PMS7003;28141;51.120;17.114;2022-08-25T17:24:05;15;8;6
42510;PMS7003;28141;51.120;17.114;2022-08-25T17:27:10;14;8;6
42510;PMS7003;28141;51.120;17.114;2022-08-25T17:30:14;15;7;5
42510;PMS7003;28141;51.120;17.114;2022-08-25T17:33:17;16;8;6
42510;PMS7003;28141;51.120;17.114;2022-08-25T17:36:21;17;7;6
42510;PMS7003;28141;51.120;17.114;2022-08-25T17:39:25;17;8;7
42510;PMS7003;28141;51.120;17.114;2022-08-25T17:42:29;13;7;5
42510;PMS7003;28141;51.120;17.114;2022-08-25T17:45:33;15;9;6
42510;PMS7003;28141;51.120;17.114;2022-08-25T17:48:37;15;8;7
42510;PMS7003;28141;51.120;17.114;2022-08-25T17:51:41;15;8;6
42510;PMS7003;28141;51.120;17.114;2022-08-25T17:54:45;14;8;5
42510;PMS7003;28141;51.120;17.114;2022-08-25T17:58:20;13;7;5
42510;PMS7003;28141;51.120;17.114;2022-08-25T18:01:25;14;7;6
42510;PMS7003;28141;51.120;17.114;2022-08-25T18:04:30;14;7;5
42510;PMS7003;28141;51.120;17.114;2022-08-25T18:07:34;15;7;6
42510;PMS7003;28141;51.120;17.114;2022-08-25T18:10:38;15;7;5
42510;PMS7003;28141;51.120;17.114;2022-08-25T18:13:41;15;8;6
42510;PMS7003;28141;51.120;17.114;2022-08-25T18:16:45;14;7;5
42510;PMS7003;28141;51.120;17.114;2022-08-25T18:19:49;16;8;6
42510;PMS7003;28141;51.120;17.114;2022-08-25T18:22:55;14;8;5
42510;PMS7003;28141;51.120;17.114;2022-08-25T18:26:01;15;7;5
42510;PMS7003;28141;51.120;17.114;2022-08-25T18:29:05;14;6;5
42510;PMS7003;28141;51.120;17.114;2022-08-25T18:32:36;16;8;6
42510;PMS7003;28141;51.120;17.114;2022-08-25T18:35:40;16;8;6
42510;PMS7003;28141;51.120;17.114;2022-08-25T18:38:44;14;7;4
42510;PMS7003;28141;51.120;17.114;2022-08-25T18:41:59;14;6;5
42510;PMS7003;28141;51.120;17.114;2022-08-25T18:45:04;15;8;5
42510;PMS7003;28141;51.120;17.114;2022-08-25T18:48:10;15;8;6
42510;PMS7003;28141;51.120;17.114;2022-08-25T18:51:13;15;8;5
42510;PMS7003;28141;51.120;17.114;2022-08-25T18:54:19;13;7;5
42510;PMS7003;28141;51.120;17.114;2022-08-25T18:57:48;13;7;5
42510;PMS7003;28141;51.120;17.114;2022-08-25T19:00:52;14;8;5
42510;PMS7003;28141;51.120;17.114;2022-08-25T19:03:56;12;6;5
42510;PMS7003;28141;51.120;17.114;2022-08-25T19:06:59;13;7;5
42510;PMS7003;28141;51.120;17.114;2022-08-25T19:10:04;15;8;5
42510;PMS7003;28141;51.120;17.114;2022-08-25T19:13:08;13;7;5
42510;PMS7003;28141;51.120;17.114;2022-08-25T19:16:14;14;7;5
42510;PMS7003;28141;51.120;17.114;2022-08-25T19:19:21;13;6;5
42510;PMS7003;28141;51.120;17.114;2022-08-25T19:22:49;13;7;5
42510;PMS7003;28141;51.120;17.114;2022-08-25T19:25:54;13;7;5
42510;PMS7003;28141;51.120;17.114;2022-08-25T19:28:57;14;7;5
42510;PMS7003;28141;51.120;17.114;2022-08-25T19:32:01;13;6;5
42510;PMS7003;28141;51.120;17.114;2022-08-25T19:35:06;13;7;6
42510;PMS7003;28141;51.120;17.114;2022-08-25T19:38:19;15;8;6
42510;PMS7003;28141;51.120;17.114;2022-08-25T19:41:25;14;7;4
42510;PMS7003;28141;51.120;17.114;2022-08-25T19:44:29;13;5;4
42510;PMS7003;28141;51.120;17.114;2022-08-25T19:47:34;13;6;5
42510;PMS7003;28141;51.120;17.114;2022-08-25T19:51:04;13;6;4
42510;PMS7003;28141;51.120;17.114;2022-08-25T19:54:07;12;6;5
42510;PMS7003;28141;51.120;17.114;2022-08-25T19:57:12;11;5;4
42510;PMS7003;28141;51.120;17.114;2022-08-25T20:00:18;13;6;4
42510;PMS7003;28141;51.120;17.114;2022-08-25T20:03:30;13;7;5
42510;PMS7003;28141;51.120;17.114;2022-08-25T20:06:33;14;7;5
42510;PMS7003;28141;51.120;17.114;2022-08-25T20:09:37;14;7;4
42510;PMS7003;28141;51.120;17.114;2022-08-25T20:13:07;13;7;5
42510;PMS7003;28141;51.120;17.114;2022-08-25T20:16:10;12;5;4
42510;PMS7003;28141;51.120;17.114;2022-08-25T20:19:14;13;6;4
42510;PMS7003;28141;51.120;17.114;2022-08-25T20:22:18;14;6;4
42510;PMS7003;28141;51.120;17.114;2022-08-25T20:25:22;12;6;4
42510;PMS7003;28141;51.120;17.114;2022-08-25T20:28:28;11;6;4
42510;PMS7003;28141;51.120;17.114;2022-08-25T20:31:31;13;6;4
42510;PMS7003;28141;51.120;17.114;2022-08-25T20:34:35;14;7;5
42510;PMS7003;28141;51.120;17.114;2022-08-25T20:38:07;13;7;5
42510;PMS7003;28141;51.120;17.114;2022-08-25T20:41:10;13;6;5
42510;PMS7003;28141;51.120;17.114;2022-08-25T20:44:14;12;6;4
42510;PMS7003;28141;51.120;17.114;2022-08-25T20:47:19;12;6;5
42510;PMS7003;28141;51.120;17.114;2022-08-25T20:50:24;13;6;5
42510;PMS7003;28141;51.120;17.114;2022-08-25T20:53:28;14;7;6
42510;PMS7003;28141;51.120;17.114;2022-08-25T20:56:32;14;7;5
42510;PMS7003;28141;51.120;17.114;2022-08-25T20:59:35;12;7;5
42510;PMS7003;28141;51.120;17.114;2022-08-25T21:03:07;13;6;5
42510;PMS7003;28141;51.120;17.114;2022-08-25T21:06:11;15;9;5
42510;PMS7003;28141;51.120;17.114;2022-08-25T21:09:17;17;8;5
42510;PMS7003;28141;51.120;17.114;2022-08-25T21:12:24;14;7;5
42510;PMS7003;28141;51.120;17.114;2022-08-25T21:15:27;15;9;6
42510;PMS7003;28141;51.120;17.114;2022-08-25T21:18:32;13;7;5
42510;PMS7003;28141;51.120;17.114;2022-08-25T21:21:37;15;9;6
42510;PMS7003;28141;51.120;17.114;2022-08-25T21:24:41;14;7;6
42510;PMS7003;28141;51.120;17.114;2022-08-25T21:28:09;13;7;5
42510;PMS7003;28141;51.120;17.114;2022-08-25T21:31:12;14;7;5
42510;PMS7003;28141;51.120;17.114;2022-08-25T21:34:16;13;5;4
42510;PMS7003;28141;51.120;17.114;2022-08-25T21:37:21;11;5;4
42510;PMS7003;28141;51.120;17.114;2022-08-25T21:40:25;13;5;4
42510;PMS7003;28141;51.120;17.114;2022-08-25T21:43:29;12;5;4
42510;PMS7003;28141;51.120;17.114;2022-08-25T21:46:33;12;5;4
42510;PMS7003;28141;51.120;17.114;2022-08-25T21:49:37;12;6;4
42510;PMS7003;28141;51.120;17.114;2022-08-25T21:53:08;12;6;3
42510;PMS7003;28141;51.120;17.114;2022-08-25T21:56:13;12;5;4
42510;PMS7003;28141;51.120;17.114;2022-08-25T21:59:24;12;6;4
42510;PMS7003;28141;51.120;17.114;2022-08-25T22:02:32;12;6;5
42510;PMS7003;28141;51.120;17.114;2022-08-25T22:05:35;12;6;4
42510;PMS7003;28141;51.120;17.114;2022-08-25T22:08:41;13;7;4
42510;PMS7003;28141;51.120;17.114;2022-08-25T22:11:45;12;6;4
42510;PMS7003;28141;51.120;17.114;2022-08-25T22:14:48;14;6;4
42510;PMS7003;28141;51.120;17.114;2022-08-25T22:18:21;12;4;3
42510;PMS7003;28141;51.120;17.114;2022-08-25T22:21:25;15;7;5
42510;PMS7003;28141;51.120;17.114;2022-08-25T22:24:29;12;5;4
42510;PMS7003;28141;51.120;17.114;2022-08-25T22:27:32;14;6;4
42510;PMS7003;28141;51.120;17.114;2022-08-25T22:30:36;13;6;5